sensor_id;sensor_type;location;lat;lon;timestamp;pressure;altitude;pressure_sealevel;temperature;humidity
42601;BME280;28229;48.856;9.088;2023-02-22T00:00:57;97872.31;;;4.18;87.05
42601;BME280;28229;48.856;9.088;2023-02-22T00:03:29;97867.72;;;4.20;86.66
42601;BME280;28229;48.856;9.088;2023-02-22T00:05:59;97866.75;;;4.22;86.59
42601;BME280;28229;48.856;9.088;2023-02-22T00:08:29;97857.97;;;4.23;86.46
42601;BME280;28229;48.856;9.088;2023-02-22T00:10:56;97864.44;;;4.27;86.94
42601;BME280;28229;48.856;9.088;2023-02-22T00:13:23;97861.25;;;4.16;87.71
42601;BME280;28229;48.856;9.088;2023-02-22T00:15:49;97865.22;;;4.12;88.19
42601;BME280;28229;48.856;9.088;2023-02-22T00:18:17;97853.91;;;4.05;88.59
42601;BME280;28229;48.856;9.088;2023-02-22T00:20:44;97851.06;;;3.92;89.58
42601;BME280;28229;48.856;9.088;2023-02-22T00:23:19;97861.25;;;4.02;89.24
42601;BME280;28229;48.856;9.088;2023-02-22T00:25:49;97853.72;;;4.07;89.26
42601;BME280;28229;48.856;9.088;2023-02-22T00:28:17;97848.41;;;4.00;89.98
42601;BME280;28229;48.856;9.088;2023-02-22T00:30:44;97848.25;;;4.02;90.31
42601;BME280;28229;48.856;9.088;2023-02-22T00:33:12;97842.41;;;3.99;90.45
42601;BME280;28229;48.856;9.088;2023-02-22T00:35:39;97838.16;;;3.98;90.39
42601;BME280;28229;48.856;9.088;2023-02-22T00:38:06;97848.84;;;3.89;91.20
42601;BME280;28229;48.856;9.088;2023-02-22T00:40:34;97850.09;;;3.78;92.19
42601;BME280;28229;48.856;9.088;2023-02-22T00:43:02;97846.47;;;3.79;92.61
42601;BME280;28229;48.856;9.088;2023-02-22T00:45:30;97843.88;;;3.79;93.04
42601;BME280;28229;48.856;9.088;2023-02-22T00:47:57;97846.59;;;3.86;93.29
42601;BME280;28229;48.856;9.088;2023-02-22T00:50:25;97837.59;;;3.88;92.88
42601;BME280;28229;48.856;9.088;2023-02-22T00:52:53;97840.31;;;3.95;92.32
42601;BME280;28229;48.856;9.088;2023-02-22T00:55:23;97835.47;;;3.92;91.76
42601;BME280;28229;48.856;9.088;2023-02-22T00:57:50;97837.78;;;3.87;91.99
42601;BME280;28229;48.856;9.088;2023-02-22T01:00:19;97836.81;;;3.88;91.72
42601;BME280;28229;48.856;9.088;2023-02-22T01:02:46;97837.78;;;3.87;91.88
42601;BME280;28229;48.856;9.088;2023-02-22T01:05:18;97833.34;;;3.72;92.50
42601;BME280;28229;48.856;9.088;2023-02-22T01:07:44;97834.22;;;3.88;91.54
42601;BME280;28229;48.856;9.088;2023-02-22T01:10:11;97823.00;;;3.87;91.39
42601;BME280;28229;48.856;9.088;2023-02-22T01:12:38;97821.34;;;3.71;92.56
42601;BME280;28229;48.856;9.088;2023-02-22T01:15:06;97824.97;;;3.85;92.18
42601;BME280;28229;48.856;9.088;2023-02-22T01:17:36;97824.16;;;3.85;92.29
42601;BME280;28229;48.856;9.088;2023-02-22T01:20:07;97819.56;;;3.87;92.13
42601;BME280;28229;48.856;9.088;2023-02-22T01:22:42;97820.47;;;3.94;91.91
42601;BME280;28229;48.856;9.088;2023-02-22T01:25:10;97827.81;;;3.90;92.04
42601;BME280;28229;48.856;9.088;2023-02-22T01:27:37;97817.88;;;3.94;91.78
42601;BME280;28229;48.856;9.088;2023-02-22T01:30:06;97819.66;;;3.93;91.57
42601;BME280;28229;48.856;9.088;2023-02-22T01:32:34;97814.47;;;3.93;91.77
42601;BME280;28229;48.856;9.088;2023-02-22T01:35:02;97809.16;;;3.87;92.13
42601;BME280;28229;48.856;9.088;2023-02-22T01:37:30;97816.00;;;3.88;92.25
42601;BME280;28229;48.856;9.088;2023-02-22T01:39:59;97806.84;;;3.92;91.93
42601;BME280;28229;48.856;9.088;2023-02-22T01:42:25;97803.09;;;3.94;91.75
42601;BME280;28229;48.856;9.088;2023-02-22T01:47:59;97796.97;;;3.87;92.01
42601;BME280;28229;48.856;9.088;2023-02-22T01:50:28;97793.53;;;3.87;91.63
42601;BME280;28229;48.856;9.088;2023-02-22T01:52:57;97788.72;;;3.84;91.31
42601;BME280;28229;48.856;9.088;2023-02-22T01:55:23;97789.22;;;3.79;91.36
42601;BME280;28229;48.856;9.088;2023-02-22T01:57:50;97783.22;;;3.78;91.41
42601;BME280;28229;48.856;9.088;2023-02-22T02:00:25;97782.88;;;3.81;91.58
42601;BME280;28229;48.856;9.088;2023-02-22T02:02:59;97772.47;;;3.81;91.61
42601;BME280;28229;48.856;9.088;2023-02-22T02:05:28;97768.97;;;3.74;92.01
42601;BME280;28229;48.856;9.088;2023-02-22T02:07:57;97773.34;;;3.74;91.87
42601;BME280;28229;48.856;9.088;2023-02-22T02:10:24;97770.75;;;3.74;91.30
42601;BME280;28229;48.856;9.088;2023-02-22T02:12:52;97776.28;;;3.71;91.42
42601;BME280;28229;48.856;9.088;2023-02-22T02:15:30;97757.00;;;3.65;92.21
42601;BME280;28229;48.856;9.088;2023-02-22T02:18:03;97764.81;;;3.65;92.43
42601;BME280;28229;48.856;9.088;2023-02-22T02:34:59;97746.56;;;3.50;93.77
42601;BME280;28229;48.856;9.088;2023-02-22T02:37:56;97742.81;;;3.53;93.62
42601;BME280;28229;48.856;9.088;2023-02-22T02:40:37;97740.19;;;3.53;92.91
42601;BME280;28229;48.856;9.088;2023-02-22T02:43:13;97743.06;;;3.43;93.25
42601;BME280;28229;48.856;9.088;2023-02-22T02:45:53;97734.00;;;3.39;93.97
42601;BME280;28229;48.856;9.088;2023-02-22T02:48:26;97737.41;;;3.39;94.02
42601;BME280;28229;48.856;9.088;2023-02-22T02:50:55;97736.06;;;3.43;94.30
42601;BME280;28229;48.856;9.088;2023-02-22T02:53:27;97731.88;;;3.42;94.52
42601;BME280;28229;48.856;9.088;2023-02-22T02:55:58;97728.97;;;3.37;95.13
42601;BME280;28229;48.856;9.088;2023-02-22T02:58:26;97722.78;;;3.38;95.62
42601;BME280;28229;48.856;9.088;2023-02-22T03:00:56;97727.00;;;3.39;95.92
42601;BME280;28229;48.856;9.088;2023-02-22T03:03:46;97719.19;;;3.39;95.64
42601;BME280;28229;48.856;9.088;2023-02-22T03:17:47;97708.00;;;3.39;94.05
42601;BME280;28229;48.856;9.088;2023-02-22T03:20:40;97711.84;;;3.28;94.33
42601;BME280;28229;48.856;9.088;2023-02-22T03:23:24;97700.16;;;3.24;94.96
42601;BME280;28229;48.856;9.088;2023-02-22T03:26:13;97705.34;;;3.24;95.09
42601;BME280;28229;48.856;9.088;2023-02-22T03:28:46;97704.09;;;3.20;95.99
42601;BME280;28229;48.856;9.088;2023-02-22T03:31:18;97707.31;;;3.22;96.35
42601;BME280;28229;48.856;9.088;2023-02-22T03:33:51;97699.69;;;3.20;96.94
42601;BME280;28229;48.856;9.088;2023-02-22T03:36:32;97696.94;;;3.22;97.17
42601;BME280;28229;48.856;9.088;2023-02-22T03:39:01;97693.34;;;3.23;97.31
42601;BME280;28229;48.856;9.088;2023-02-22T03:41:30;97693.88;;;3.18;97.51
42601;BME280;28229;48.856;9.088;2023-02-22T03:44:04;97694.22;;;3.15;97.73
42601;BME280;28229;48.856;9.088;2023-02-22T03:46:33;97694.66;;;3.19;97.89
42601;BME280;28229;48.856;9.088;2023-02-22T03:49:07;97690.75;;;3.23;97.76
42601;BME280;28229;48.856;9.088;2023-02-22T03:51:37;97695.66;;;3.18;98.29
42601;BME280;28229;48.856;9.088;2023-02-22T03:54:05;97697.22;;;3.27;98.45
42601;BME280;28229;48.856;9.088;2023-02-22T03:56:40;97698.19;;;3.26;98.43
42601;BME280;28229;48.856;9.088;2023-02-22T03:59:12;97690.66;;;3.31;98.31
42601;BME280;28229;48.856;9.088;2023-02-22T04:01:39;97694.63;;;3.27;98.08
42601;BME280;28229;48.856;9.088;2023-02-22T04:04:06;97696.75;;;3.23;97.96
42601;BME280;28229;48.856;9.088;2023-02-22T04:06:32;97699.81;;;3.27;97.92
42601;BME280;28229;48.856;9.088;2023-02-22T04:09:00;97690.75;;;3.23;97.96
42601;BME280;28229;48.856;9.088;2023-02-22T04:11:27;97690.75;;;3.23;97.86
42601;BME280;28229;48.856;9.088;2023-02-22T04:13:55;97692.00;;;3.27;97.24
42601;BME280;28229;48.856;9.088;2023-02-22T04:16:23;97692.63;;;3.29;96.63
42601;BME280;28229;48.856;9.088;2023-02-22T04:18:50;97690.38;;;3.26;96.53
42601;BME280;28229;48.856;9.088;2023-02-22T04:21:18;97689.59;;;3.26;96.28
42601;BME280;28229;48.856;9.088;2023-02-22T04:23:46;97688.44;;;3.28;96.41
42601;BME280;28229;48.856;9.088;2023-02-22T04:26:13;97682.34;;;3.21;96.71
42601;BME280;28229;48.856;9.088;2023-02-22T04:28:39;97679.44;;;3.16;97.20
42601;BME280;28229;48.856;9.088;2023-02-22T04:31:12;97683.00;;;3.15;97.49
42601;BME280;28229;48.856;9.088;2023-02-22T04:33:39;97680.69;;;3.05;97.91
42601;BME280;28229;48.856;9.088;2023-02-22T04:36:07;97683.56;;;3.10;97.60
42601;BME280;28229;48.856;9.088;2023-02-22T04:38:48;97684.34;;;3.11;97.60
42601;BME280;28229;48.856;9.088;2023-02-22T04:41:16;97684.69;;;3.08;97.64
42601;BME280;28229;48.856;9.088;2023-02-22T04:43:43;97682.03;;;3.16;97.35
42601;BME280;28229;48.856;9.088;2023-02-22T04:46:16;97678.81;;;3.14;97.26
42601;BME280;28229;48.856;9.088;2023-02-22T04:48:42;97676.56;;;3.11;97.26
42601;BME280;28229;48.856;9.088;2023-02-22T04:51:08;97681.75;;;3.11;97.42
42601;BME280;28229;48.856;9.088;2023-02-22T04:53:36;97672.50;;;3.08;97.40
42601;BME280;28229;48.856;9.088;2023-02-22T04:56:03;97667.13;;;3.10;97.21
42601;BME280;28229;48.856;9.088;2023-02-22T04:58:29;97678.16;;;3.12;97.22
42601;BME280;28229;48.856;9.088;2023-02-22T05:00:59;97674.47;;;3.06;97.68
42601;BME280;28229;48.856;9.088;2023-02-22T05:03:26;97677.16;;;2.98;98.26
42601;BME280;28229;48.856;9.088;2023-02-22T05:05:52;97674.09;;;2.94;98.78
42601;BME280;28229;48.856;9.088;2023-02-22T05:08:18;97673.44;;;2.92;99.07
42601;BME280;28229;48.856;9.088;2023-02-22T05:10:45;97666.47;;;2.93;97.87
42601;BME280;28229;48.856;9.088;2023-02-22T05:13:11;97675.06;;;2.93;97.61
42601;BME280;28229;48.856;9.088;2023-02-22T05:15:37;97673.22;;;3.02;96.19
42601;BME280;28229;48.856;9.088;2023-02-22T05:18:03;97677.03;;;2.91;95.60
42601;BME280;28229;48.856;9.088;2023-02-22T05:20:32;97676.13;;;2.84;95.80
42601;BME280;28229;48.856;9.088;2023-02-22T05:23:00;97669.31;;;2.83;95.09
42601;BME280;28229;48.856;9.088;2023-02-22T05:25:27;97665.28;;;2.80;94.96
42601;BME280;28229;48.856;9.088;2023-02-22T05:27:58;97664.81;;;2.77;95.07
42601;BME280;28229;48.856;9.088;2023-02-22T05:30:32;97661.47;;;2.68;95.20
42601;BME280;28229;48.856;9.088;2023-02-22T05:32:59;97660.66;;;2.67;95.04
42601;BME280;28229;48.856;9.088;2023-02-22T05:35:26;97660.66;;;2.67;94.58
42601;BME280;28229;48.856;9.088;2023-02-22T05:37:53;97654.19;;;2.63;94.70
42601;BME280;28229;48.856;9.088;2023-02-22T05:40:22;97663.47;;;2.58;94.76
42601;BME280;28229;48.856;9.088;2023-02-22T05:42:49;97654.88;;;2.57;94.54
42601;BME280;28229;48.856;9.088;2023-02-22T05:45:18;97656.03;;;2.55;94.91
42601;BME280;28229;48.856;9.088;2023-02-22T05:47:45;97658.81;;;2.53;94.71
42601;BME280;28229;48.856;9.088;2023-02-22T05:50:11;97646.34;;;2.48;95.68
42601;BME280;28229;48.856;9.088;2023-02-22T05:52:37;97654.44;;;2.54;95.98
42601;BME280;28229;48.856;9.088;2023-02-22T05:55:08;97657.31;;;2.59;95.44
42601;BME280;28229;48.856;9.088;2023-02-22T05:57:35;97652.91;;;2.59;95.00
42601;BME280;28229;48.856;9.088;2023-02-22T06:00:04;97649.22;;;2.54;95.36
42601;BME280;28229;48.856;9.088;2023-02-22T06:02:38;97653.97;;;2.50;96.01
42601;BME280;28229;48.856;9.088;2023-02-22T06:05:05;97656.84;;;2.55;95.84
42601;BME280;28229;48.856;9.088;2023-02-22T06:07:31;97660.28;;;2.47;96.03
42601;BME280;28229;48.856;9.088;2023-02-22T06:09:57;97657.84;;;2.46;96.62
42601;BME280;28229;48.856;9.088;2023-02-22T06:12:23;97655.81;;;2.41;97.47
42601;BME280;28229;48.856;9.088;2023-02-22T06:14:50;97656.25;;;2.45;97.50
42601;BME280;28229;48.856;9.088;2023-02-22T06:17:16;97651.56;;;2.40;97.93
42601;BME280;28229;48.856;9.088;2023-02-22T06:19:42;97655.03;;;2.33;98.70
42601;BME280;28229;48.856;9.088;2023-02-22T06:22:17;97658.34;;;2.26;99.18
42601;BME280;28229;48.856;9.088;2023-02-22T06:24:44;97662.34;;;2.29;99.43
42601;BME280;28229;48.856;9.088;2023-02-22T06:27:10;97660.72;;;2.28;99.80
42601;BME280;28229;48.856;9.088;2023-02-22T06:29:37;97668.34;;;2.29;100.00
42601;BME280;28229;48.856;9.088;2023-02-22T06:32:03;97673.22;;;2.33;100.00
42601;BME280;28229;48.856;9.088;2023-02-22T06:34:29;97671.03;;;2.44;99.61
42601;BME280;28229;48.856;9.088;2023-02-22T06:36:55;97674.94;;;2.40;99.45
42601;BME280;28229;48.856;9.088;2023-02-22T06:39:22;97677.50;;;2.48;98.82
42601;BME280;28229;48.856;9.088;2023-02-22T06:41:48;97678.31;;;2.49;98.12
42601;BME280;28229;48.856;9.088;2023-02-22T06:44:16;97685.91;;;2.51;97.22
42601;BME280;28229;48.856;9.088;2023-02-22T06:46:48;97685.88;;;2.59;96.54
42601;BME280;28229;48.856;9.088;2023-02-22T06:49:18;97682.13;;;2.61;96.51
42601;BME280;28229;48.856;9.088;2023-02-22T06:51:45;97685.25;;;2.57;96.46
42601;BME280;28229;48.856;9.088;2023-02-22T06:54:11;97685.00;;;2.66;96.26
42601;BME280;28229;48.856;9.088;2023-02-22T06:56:38;97696.50;;;2.72;95.88
42601;BME280;28229;48.856;9.088;2023-02-22T06:59:06;97692.09;;;2.73;96.27
42601;BME280;28229;48.856;9.088;2023-02-22T07:01:33;97694.34;;;2.76;96.25
42601;BME280;28229;48.856;9.088;2023-02-22T07:03:59;97692.19;;;2.88;95.82
42601;BME280;28229;48.856;9.088;2023-02-22T07:06:25;97693.59;;;2.90;95.70
42601;BME280;28229;48.856;9.088;2023-02-22T07:08:52;97697.84;;;2.91;95.59
42601;BME280;28229;48.856;9.088;2023-02-22T07:11:18;97686.84;;;3.04;95.12
42601;BME280;28229;48.856;9.088;2023-02-22T07:13:44;97692.22;;;3.02;95.35
42601;BME280;28229;48.856;9.088;2023-02-22T07:16:10;97697.69;;;3.08;95.52
42601;BME280;28229;48.856;9.088;2023-02-22T07:18:37;97700.59;;;3.13;96.25
42601;BME280;28229;48.856;9.088;2023-02-22T07:21:04;97700.31;;;3.22;96.57
42601;BME280;28229;48.856;9.088;2023-02-22T07:23:30;97698.84;;;3.28;96.62
42601;BME280;28229;48.856;9.088;2023-02-22T07:25:59;97702.06;;;3.30;96.75
42601;BME280;28229;48.856;9.088;2023-02-22T07:28:25;97700.19;;;3.39;96.84
42601;BME280;28229;48.856;9.088;2023-02-22T07:30:51;97714.63;;;3.41;96.79
42601;BME280;28229;48.856;9.088;2023-02-22T07:33:17;97701.72;;;3.48;96.52
42601;BME280;28229;48.856;9.088;2023-02-22T07:35:46;97702.00;;;3.53;96.63
42601;BME280;28229;48.856;9.088;2023-02-22T07:38:14;97710.53;;;3.62;96.36
42601;BME280;28229;48.856;9.088;2023-02-22T07:40:41;97711.06;;;3.72;95.90
42601;BME280;28229;48.856;9.088;2023-02-22T07:43:25;97710.19;;;3.95;94.90
42601;BME280;28229;48.856;9.088;2023-02-22T07:45:55;97719.06;;;3.86;92.49
42601;BME280;28229;48.856;9.088;2023-02-22T07:48:23;97729.94;;;3.74;92.68
42601;BME280;28229;48.856;9.088;2023-02-22T07:50:50;97725.78;;;3.65;92.99
42601;BME280;28229;48.856;9.088;2023-02-22T07:53:24;97714.94;;;3.76;93.03
42601;BME280;28229;48.856;9.088;2023-02-22T07:55:51;97720.66;;;3.87;93.23
42601;BME280;28229;48.856;9.088;2023-02-22T07:58:20;97718.16;;;3.93;93.24
42601;BME280;28229;48.856;9.088;2023-02-22T08:00:47;97716.28;;;4.02;93.01
42601;BME280;28229;48.856;9.088;2023-02-22T08:03:15;97715.19;;;4.11;93.22
42601;BME280;28229;48.856;9.088;2023-02-22T08:05:46;97713.75;;;4.24;93.15
42601;BME280;28229;48.856;9.088;2023-02-22T08:08:13;97711.06;;;4.32;92.73
42601;BME280;28229;48.856;9.088;2023-02-22T08:10:41;97716.84;;;4.49;92.35
42601;BME280;28229;48.856;9.088;2023-02-22T08:13:07;97713.13;;;4.58;91.91
42601;BME280;28229;48.856;9.088;2023-02-22T08:15:36;97712.59;;;4.63;91.64
42601;BME280;28229;48.856;9.088;2023-02-22T08:18:08;97702.06;;;4.71;91.40
42601;BME280;28229;48.856;9.088;2023-02-22T08:20:36;97709.47;;;4.74;91.77
42601;BME280;28229;48.856;9.088;2023-02-22T08:23:04;97714.66;;;4.89;90.32
42601;BME280;28229;48.856;9.088;2023-02-22T08:25:30;97709.00;;;5.07;89.88
42601;BME280;28229;48.856;9.088;2023-02-22T08:28:02;97706.38;;;5.28;89.92
42601;BME280;28229;48.856;9.088;2023-02-22T08:30:30;97716.63;;;5.58;89.00
42601;BME280;28229;48.856;9.088;2023-02-22T08:32:57;97713.56;;;5.83;86.92
42601;BME280;28229;48.856;9.088;2023-02-22T08:35:24;97710.50;;;6.01;86.33
42601;BME280;28229;48.856;9.088;2023-02-22T08:37:56;97715.19;;;6.19;85.54
42601;BME280;28229;48.856;9.088;2023-02-22T08:40:24;97710.63;;;6.34;85.41
42601;BME280;28229;48.856;9.088;2023-02-22T08:42:50;97706.25;;;6.48;84.43
42601;BME280;28229;48.856;9.088;2023-02-22T08:45:17;97712.53;;;6.74;84.92
42601;BME280;28229;48.856;9.088;2023-02-22T08:47:43;97705.16;;;7.04;83.99
42601;BME280;28229;48.856;9.088;2023-02-22T08:50:16;97706.78;;;7.32;82.64
42601;BME280;28229;48.856;9.088;2023-02-22T08:52:43;97702.72;;;7.62;84.72
42601;BME280;28229;48.856;9.088;2023-02-22T08:55:09;97707.06;;;8.09;87.76
42601;BME280;28229;48.856;9.088;2023-02-22T08:57:36;97702.88;;;8.60;81.44
42601;BME280;28229;48.856;9.088;2023-02-22T09:00:03;97706.06;;;9.00;77.33
42601;BME280;28229;48.856;9.088;2023-02-22T09:02:29;97713.78;;;9.45;74.81
42601;BME280;28229;48.856;9.088;2023-02-22T09:04:56;97710.84;;;9.79;72.75
42601;BME280;28229;48.856;9.088;2023-02-22T09:07:22;97707.06;;;9.93;71.68
42601;BME280;28229;48.856;9.088;2023-02-22T09:09:49;97709.69;;;10.12;71.32
42601;BME280;28229;48.856;9.088;2023-02-22T09:12:15;97702.31;;;10.20;70.49
42601;BME280;28229;48.856;9.088;2023-02-22T09:14:41;97704.66;;;10.28;70.21
42601;BME280;28229;48.856;9.088;2023-02-22T09:17:08;97707.56;;;10.39;70.75
42601;BME280;28229;48.856;9.088;2023-02-22T09:19:36;97695.44;;;10.56;69.29
42601;BME280;28229;48.856;9.088;2023-02-22T09:22:02;97699.03;;;10.74;67.90
42601;BME280;28229;48.856;9.088;2023-02-22T09:24:29;97695.16;;;10.76;66.37
42601;BME280;28229;48.856;9.088;2023-02-22T09:26:55;97698.97;;;10.80;68.52
42601;BME280;28229;48.856;9.088;2023-02-22T09:29:23;97695.78;;;10.90;64.90
42601;BME280;28229;48.856;9.088;2023-02-22T09:31:51;97692.69;;;11.05;64.61
42601;BME280;28229;48.856;9.088;2023-02-22T09:34:19;97680.63;;;11.28;64.63
42601;BME280;28229;48.856;9.088;2023-02-22T09:36:47;97695.63;;;11.39;63.84
42601;BME280;28229;48.856;9.088;2023-02-22T09:39:15;97686.81;;;11.45;63.69
42601;BME280;28229;48.856;9.088;2023-02-22T09:47:14;97677.88;;;11.93;60.11
42601;BME280;28229;48.856;9.088;2023-02-22T09:53:00;97677.47;;;12.13;61.35
42601;BME280;28229;48.856;9.088;2023-02-22T09:55:43;97672.50;;;12.41;60.38
42601;BME280;28229;48.856;9.088;2023-02-22T09:58:35;97673.50;;;12.68;58.92
42601;BME280;28229;48.856;9.088;2023-02-22T10:04:12;97673.31;;;13.04;58.68
42601;BME280;28229;48.856;9.088;2023-02-22T10:07:05;97679.22;;;13.28;57.55
42601;BME280;28229;48.856;9.088;2023-02-22T10:09:39;97678.72;;;13.43;56.86
42601;BME280;28229;48.856;9.088;2023-02-22T10:12:17;97677.41;;;13.62;55.45
42601;BME280;28229;48.856;9.088;2023-02-22T10:15:06;97670.50;;;13.78;54.89
42601;BME280;28229;48.856;9.088;2023-02-22T10:20:21;97670.03;;;14.03;53.83
42601;BME280;28229;48.856;9.088;2023-02-22T10:23:03;97671.81;;;14.20;52.54
42601;BME280;28229;48.856;9.088;2023-02-22T10:25:35;97671.28;;;14.45;51.72
42601;BME280;28229;48.856;9.088;2023-02-22T10:28:15;97664.88;;;14.63;50.82
42601;BME280;28229;48.856;9.088;2023-02-22T10:30:50;97660.78;;;14.77;50.70
42601;BME280;28229;48.856;9.088;2023-02-22T10:33:33;97662.06;;;15.02;51.00
42601;BME280;28229;48.856;9.088;2023-02-22T10:36:02;97654.25;;;15.17;50.15
42601;BME280;28229;48.856;9.088;2023-02-22T10:38:31;97653.13;;;15.08;49.01
42601;BME280;28229;48.856;9.088;2023-02-22T10:41:18;97651.53;;;15.12;49.57
42601;BME280;28229;48.856;9.088;2023-02-22T10:43:46;97656.75;;;15.02;48.98
42601;BME280;28229;48.856;9.088;2023-02-22T10:46:14;97658.97;;;15.10;49.41
42601;BME280;28229;48.856;9.088;2023-02-22T10:48:46;97649.56;;;15.30;49.18
42601;BME280;28229;48.856;9.088;2023-02-22T10:51:14;97646.97;;;15.40;48.32
42601;BME280;28229;48.856;9.088;2023-02-22T10:53:40;97650.72;;;15.44;49.12
42601;BME280;28229;48.856;9.088;2023-02-22T10:56:21;97646.03;;;15.19;49.44
42601;BME280;28229;48.856;9.088;2023-02-22T10:58:59;97640.41;;;15.10;50.12
42601;BME280;28229;48.856;9.088;2023-02-22T11:01:37;97644.13;;;15.14;50.07
42601;BME280;28229;48.856;9.088;2023-02-22T11:04:11;97648.44;;;15.20;49.67
42601;BME280;28229;48.856;9.088;2023-02-22T11:06:45;97644.50;;;15.28;49.45
42601;BME280;28229;48.856;9.088;2023-02-22T11:09:17;97643.72;;;15.33;49.19
42601;BME280;28229;48.856;9.088;2023-02-22T11:11:46;97643.25;;;15.41;49.68
42601;BME280;28229;48.856;9.088;2023-02-22T11:14:28;97638.47;;;15.38;49.81
42601;BME280;28229;48.856;9.088;2023-02-22T11:16:57;97633.41;;;15.31;49.11
42601;BME280;28229;48.856;9.088;2023-02-22T11:19:28;97635.28;;;15.36;49.25
42601;BME280;28229;48.856;9.088;2023-02-22T11:24:31;97629.28;;;15.56;48.40
42601;BME280;28229;48.856;9.088;2023-02-22T11:27:00;97626.44;;;15.68;48.68
42601;BME280;28229;48.856;9.088;2023-02-22T11:29:33;97629.72;;;15.80;49.15
42601;BME280;28229;48.856;9.088;2023-02-22T11:32:17;97631.91;;;15.98;48.76
42601;BME280;28229;48.856;9.088;2023-02-22T11:34:50;97626.94;;;16.12;48.01
42601;BME280;28229;48.856;9.088;2023-02-22T11:40:09;97621.44;;;16.40;47.13
42601;BME280;28229;48.856;9.088;2023-02-22T11:42:37;97616.34;;;16.23;47.57
42601;BME280;28229;48.856;9.088;2023-02-22T11:45:19;97616.63;;;16.26;47.54
42601;BME280;28229;48.856;9.088;2023-02-22T11:47:57;97607.09;;;16.35;47.58
42601;BME280;28229;48.856;9.088;2023-02-22T11:50:31;97598.59;;;16.39;47.30
42601;BME280;28229;48.856;9.088;2023-02-22T11:58:40;97596.47;;;16.41;46.08
42601;BME280;28229;48.856;9.088;2023-02-22T12:01:28;97584.72;;;16.06;47.52
42601;BME280;28229;48.856;9.088;2023-02-22T12:04:27;97588.41;;;15.94;47.84
42601;BME280;28229;48.856;9.088;2023-02-22T12:10:16;97579.91;;;15.92;47.59
42601;BME280;28229;48.856;9.088;2023-02-22T12:19:00;97578.53;;;15.79;47.63
42601;BME280;28229;48.856;9.088;2023-02-22T12:21:31;97579.34;;;15.80;47.71
42601;BME280;28229;48.856;9.088;2023-02-22T12:29:05;97570.72;;;16.21;47.58
42601;BME280;28229;48.856;9.088;2023-02-22T12:34:38;97567.84;;;16.63;47.01
42601;BME280;28229;48.856;9.088;2023-02-22T12:37:21;97572.59;;;16.77;46.41
42601;BME280;28229;48.856;9.088;2023-02-22T12:40:18;97564.66;;;16.92;45.65
42601;BME280;28229;48.856;9.088;2023-02-22T12:48:07;97569.94;;;17.12;44.80
42601;BME280;28229;48.856;9.088;2023-02-22T12:50:36;97562.50;;;17.15;44.95
42601;BME280;28229;48.856;9.088;2023-02-22T12:53:22;97557.50;;;16.87;45.83
42601;BME280;28229;48.856;9.088;2023-02-22T12:55:59;97552.16;;;16.67;46.33
42601;BME280;28229;48.856;9.088;2023-02-22T12:58:35;97554.84;;;16.72;46.29
42601;BME280;28229;48.856;9.088;2023-02-22T13:01:17;97566.50;;;16.97;46.68
42601;BME280;28229;48.856;9.088;2023-02-22T13:03:45;97558.22;;;17.29;45.49
42601;BME280;28229;48.856;9.088;2023-02-22T13:09:04;97566.16;;;17.39;44.04
42601;BME280;28229;48.856;9.088;2023-02-22T13:11:51;97557.84;;;17.66;43.71
42601;BME280;28229;48.856;9.088;2023-02-22T13:17:20;97560.97;;;18.34;43.62
42601;BME280;28229;48.856;9.088;2023-02-22T13:23:04;97552.81;;;18.59;42.07
42601;BME280;28229;48.856;9.088;2023-02-22T13:42:10;97548.75;;;17.88;41.69
42601;BME280;28229;48.856;9.088;2023-02-22T13:52:45;97540.50;;;16.88;44.74
42601;BME280;28229;48.856;9.088;2023-02-22T13:55:17;97536.25;;;16.72;45.04
42601;BME280;28229;48.856;9.088;2023-02-22T13:57:47;97533.84;;;16.50;45.90
42601;BME280;28229;48.856;9.088;2023-02-22T14:00:19;97541.25;;;16.22;46.27
42601;BME280;28229;48.856;9.088;2023-02-22T14:03:00;97542.53;;;16.04;47.07
42601;BME280;28229;48.856;9.088;2023-02-22T14:08:05;97533.78;;;16.04;47.95
42601;BME280;28229;48.856;9.088;2023-02-22T14:10:49;97540.69;;;16.05;47.91
42601;BME280;28229;48.856;9.088;2023-02-22T14:13:18;97545.72;;;16.01;48.61
42601;BME280;28229;48.856;9.088;2023-02-22T14:18:30;97532.91;;;15.77;48.35
42601;BME280;28229;48.856;9.088;2023-02-22T14:23:35;97534.69;;;15.67;48.31
42601;BME280;28229;48.856;9.088;2023-02-22T14:29:13;97532.38;;;15.75;48.27
42601;BME280;28229;48.856;9.088;2023-02-22T14:36:50;97526.19;;;15.54;49.31
42601;BME280;28229;48.856;9.088;2023-02-22T14:39:33;97529.88;;;15.53;49.85
42601;BME280;28229;48.856;9.088;2023-02-22T14:42:28;97531.13;;;15.35;50.81
42601;BME280;28229;48.856;9.088;2023-02-22T14:45:16;97531.38;;;15.34;50.63
42601;BME280;28229;48.856;9.088;2023-02-22T14:47:50;97533.78;;;15.35;50.72
42601;BME280;28229;48.856;9.088;2023-02-22T14:53:07;97531.84;;;15.20;51.14
42601;BME280;28229;48.856;9.088;2023-02-22T14:55:52;97530.75;;;15.16;51.17
42601;BME280;28229;48.856;9.088;2023-02-22T14:58:30;97528.06;;;15.11;51.67
42601;BME280;28229;48.856;9.088;2023-02-22T15:01:35;97524.03;;;14.98;51.77
42601;BME280;28229;48.856;9.088;2023-02-22T15:04:21;97539.34;;;14.91;52.60
42601;BME280;28229;48.856;9.088;2023-02-22T15:06:48;97534.81;;;14.92;52.40
42601;BME280;28229;48.856;9.088;2023-02-22T15:09:27;97532.63;;;14.78;52.77
42601;BME280;28229;48.856;9.088;2023-02-22T15:12:09;97533.66;;;14.77;53.07
42601;BME280;28229;48.856;9.088;2023-02-22T15:14:39;97536.38;;;14.82;52.88
42601;BME280;28229;48.856;9.088;2023-02-22T15:17:26;97534.44;;;14.73;53.10
42601;BME280;28229;48.856;9.088;2023-02-22T15:19:52;97527.78;;;14.70;52.97
42601;BME280;28229;48.856;9.088;2023-02-22T15:22:23;97529.41;;;14.71;53.54
42601;BME280;28229;48.856;9.088;2023-02-22T15:24:59;97532.56;;;14.68;53.39
42601;BME280;28229;48.856;9.088;2023-02-22T15:27:25;97533.94;;;14.48;54.11
42601;BME280;28229;48.856;9.088;2023-02-22T15:30:00;97532.78;;;14.34;54.17
42601;BME280;28229;48.856;9.088;2023-02-22T15:32:35;97530.63;;;14.31;54.32
42601;BME280;28229;48.856;9.088;2023-02-22T15:35:27;97524.78;;;14.29;54.79
42601;BME280;28229;48.856;9.088;2023-02-22T15:38:21;97526.34;;;14.25;54.93